Aérodrome :
LOGIN :

S'inscrire | Disclaimer

   EN    FR    IT 

 










Légende :    VFR   VFR Marginal   IFR   IFR Intensif   IFR Très Intensif
Visi : 
Plafond : 
>= 8 km
>= 3000ft
5 à 8 km
1000 à 3000 ft
1500m à 5 km
500 à 1000 ft
800 à 1500m
200 à 500 ft
< 800m
< 200 ft
Symboles :   Orages  Brouillard  Fortes neiges  Fortes précipitations  Vent > 20 kt
SIGMETs :   Divers  Orages  Givrage  Turbulence  Onde Orograph.  Cendres Volcan.






- Altitude de l'aérodrome : 171 ft
- Code IATA : EGC


LFBE - Bergerac

DERNIER METAR :
  • 071300Z AUTO VRB02KT 9000 OVC006 10/10 Q1022 TEMPO 1500 RADZ OVC002

METARs EXPIRÉS :
  • 071230Z AUTO VRB02KT 5000 BR OVC006 10/10 Q1022 TEMPO 1500 RADZ OVC002
  • 071200Z AUTO 09002KT 4100 BR OVC005 09/09 Q1023 TEMPO 1500 RADZ
  • 071130Z AUTO 16003KT 120V230 2800 -RADZ BR OVC006 09/09 Q1023 TEMPO RADZ OVC002
  • 071100Z AUTO VRB03KT 4100 -RADZ BR OVC006 09/08 Q1023 TEMPO 1500 RADZ OVC002
  • 071030Z AUTO 15005KT 8000 OVC006 08/08 Q1023 TEMPO 1500 RADZ OVC002

TAF TAF LFBE
Valide du 07 à 12h jusqu'au 08 à 12h UTC


071100Z 0712/0812 14005KT 7000 OVC008
TEMPO 0712/0804 1500 RADZ OVC002
BECMG 0804/0806 9999 BKN030
BECMG 0809/0811 20010KT 4000 -RA OVC025



MET'MAP, la Météo Aéronautique d'un coup d'oeil ! - Copyright ORBIFLY Décembre 2007 - Disclaimer

ORBIFLY MET'MAP TEAM :

Programmation & Développement : Alexandra Zaïnal
Sur une idée originale de : Baudouin d'Aumeries
Assistance à la programmation : Marc-Olivier Méhu
Soutien technique & logistique : Manuel Goepfert

Contact : metmap@orbifly.com




SOURCES & CREDITS :

   NOAA